createdAt,value
2018-12-29T00:00:26.947Z,177.63
2018-12-29T00:02:34.143Z,187.83
2018-12-29T00:04:41.523Z,192.97
2018-12-29T00:06:48.720Z,198.13
2018-12-29T00:08:56.046Z,195.90
2018-12-29T00:11:03.649Z,188.90
2018-12-29T00:13:11.752Z,203.83
2018-12-29T00:15:18.994Z,217.60
2018-12-29T00:17:26.207Z,226.77
2018-12-29T00:19:34.039Z,230.67
2018-12-29T00:21:41.201Z,211.90
2018-12-29T00:23:48.508Z,226.87
2018-12-29T00:25:56.655Z,240.00
2018-12-29T02:06:42.158Z,201.73
2018-12-29T02:08:50.333Z,220.73
2018-12-29T02:10:57.465Z,164.67
2018-12-29T02:13:05.580Z,158.17
2018-12-29T02:15:13.528Z,169.53
2018-12-29T02:17:20.776Z,170.20
2018-12-29T02:19:29.474Z,161.10
2018-12-29T02:21:36.809Z,190.27
2018-12-29T02:23:43.996Z,193.07
2018-12-29T02:25:52.366Z,164.57
2018-12-29T02:27:59.970Z,178.93
2018-12-29T02:30:07.588Z,159.23
2018-12-29T02:32:14.931Z,167.60
2018-12-29T02:34:23.054Z,159.57
2018-12-29T02:36:31.818Z,155.03
2018-12-29T02:38:40.088Z,146.07
2018-12-29T02:40:47.368Z,135.97
2018-12-29T02:42:54.577Z,148.30
2018-12-29T02:45:01.862Z,153.10
2018-12-29T02:47:09.582Z,139.27
2018-12-29T02:49:16.781Z,152.47
2018-12-29T02:51:24.492Z,174.03
2018-12-29T02:53:31.845Z,148.80
2018-12-29T02:55:39.193Z,136.93
2018-12-29T02:57:46.616Z,153.70
2018-12-29T02:59:55.200Z,161.07
2018-12-29T03:02:02.579Z,158.37
2018-12-29T03:04:10.064Z,157.50
2018-12-29T03:06:17.626Z,162.20
2018-12-29T03:08:25.126Z,172.57
2018-12-29T03:10:32.392Z,190.73
2018-12-29T03:12:39.922Z,165.87
2018-12-29T03:14:47.964Z,174.57
2018-12-29T03:16:56.318Z,167.70
2018-12-29T03:19:03.586Z,169.90
2018-12-29T03:21:12.090Z,162.37
2018-12-29T03:23:19.473Z,144.30
2018-12-29T03:25:27.230Z,161.30
2018-12-29T03:27:36.238Z,156.13
2018-12-29T03:29:43.598Z,170.80
2018-12-29T03:31:50.928Z,158.73
2018-12-29T03:33:58.112Z,172.43
2018-12-29T03:36:05.522Z,178.43
2018-12-29T03:38:12.838Z,153.50
2018-12-29T03:40:20.751Z,159.13
2018-12-29T03:42:27.967Z,168.83
2018-12-29T03:44:36.092Z,155.63
2018-12-29T03:46:43.764Z,177.97
2018-12-29T03:48:50.927Z,148.90
2018-12-29T03:50:58.228Z,146.33
2018-12-29T03:53:05.334Z,137.03
2018-12-29T03:55:13.064Z,186.87
2018-12-29T03:57:20.288Z,148.03
2018-12-29T03:59:27.648Z,165.83
2018-12-29T04:01:34.912Z,165.33
2018-12-29T04:03:42.249Z,161.20
2018-12-29T04:05:49.342Z,180.73
2018-12-29T04:07:56.441Z,174.87
2018-12-29T04:10:04.222Z,163.27
2018-12-29T04:12:19.723Z,155.03
2018-12-29T04:14:27.878Z,156.70
2018-12-29T04:16:35.323Z,164.47
2018-12-29T04:18:43.483Z,178.70
2018-12-29T04:20:50.767Z,196.67
2018-12-29T04:22:58.012Z,200.53
2018-12-29T04:25:05.635Z,192.20
2018-12-29T04:27:13.543Z,185.87
2018-12-29T04:29:20.622Z,191.37
2018-12-29T04:31:27.897Z,181.53
2018-12-29T04:33:35.382Z,184.87
2018-12-29T04:35:43.134Z,168.03
2018-12-29T04:37:50.709Z,174.00
2018-12-29T04:39:57.991Z,181.80
2018-12-29T04:42:05.606Z,184.50
2018-12-29T04:44:12.899Z,176.63
2018-12-29T04:46:20.565Z,192.97
2018-12-29T04:48:27.677Z,167.57
2018-12-29T04:50:36.131Z,156.90
2018-12-29T04:52:43.512Z,157.93
2018-12-29T04:54:51.686Z,158.70
2018-12-29T04:56:58.781Z,159.30
2018-12-29T04:59:06.702Z,157.20
2018-12-29T05:01:13.987Z,178.90
2018-12-29T05:03:21.752Z,156.47
2018-12-29T05:05:30.032Z,148.77
2018-12-29T05:07:39.516Z,171.53
2018-12-29T05:09:46.617Z,166.43
2018-12-29T05:11:55.632Z,175.53
2018-12-29T05:14:03.231Z,179.57
2018-12-29T05:16:13.001Z,156.50
2018-12-29T05:18:19.627Z,171.10
2018-12-29T05:20:28.089Z,177.17
2018-12-29T05:24:47.988Z,220.67
2018-12-29T05:26:56.051Z,202.57
2018-12-29T05:29:03.618Z,177.50
2018-12-29T05:31:12.104Z,203.03
2018-12-29T05:33:19.227Z,207.33
2018-12-29T05:35:27.518Z,198.93
2018-12-29T05:37:35.089Z,187.53
2018-12-29T05:39:42.861Z,207.90
2018-12-29T05:41:50.265Z,198.93
2018-12-29T05:43:58.113Z,210.00
2018-12-29T05:46:06.418Z,187.17
2018-12-29T05:48:14.136Z,168.33
2018-12-29T05:50:21.129Z,167.63
2018-12-29T05:52:29.174Z,158.57
2018-12-29T05:54:37.545Z,161.93
2018-12-29T05:56:44.985Z,162.20
2018-12-29T05:58:53.612Z,152.47
2018-12-29T06:01:01.677Z,174.90
2018-12-29T06:03:09.756Z,197.33
2018-12-29T06:05:17.045Z,184.43
2018-12-29T06:07:24.596Z,227.80
2018-12-29T06:09:31.971Z,181.73
2018-12-29T06:11:39.400Z,170.97
2018-12-29T06:13:47.162Z,162.07
2018-12-29T06:15:54.724Z,170.67
2018-12-29T06:18:01.683Z,195.07
2018-12-29T06:20:09.405Z,198.07
2018-12-29T06:22:16.690Z,201.43
2018-12-29T06:24:23.982Z,191.80
2018-12-29T06:26:32.062Z,159.57
2018-12-29T06:28:39.402Z,171.17
2018-12-29T06:30:46.206Z,161.47
2018-12-29T06:32:53.366Z,138.40
2018-12-29T06:35:00.843Z,129.07
2018-12-29T06:37:07.522Z,129.97
2018-12-29T06:39:14.696Z,128.03
2018-12-29T06:41:21.756Z,120.67
2018-12-29T06:43:28.436Z,111.67
2018-12-29T06:45:36.246Z,135.23
2018-12-29T06:47:43.945Z,118.00
2018-12-29T06:49:51.210Z,155.73
2018-12-29T06:51:58.577Z,121.07
2018-12-29T06:54:05.716Z,145.67
2018-12-29T06:56:13.541Z,153.10
2018-12-29T06:58:20.770Z,173.63
2018-12-29T07:00:28.011Z,173.67
2018-12-29T07:02:35.100Z,166.67
2018-12-29T07:04:43.280Z,168.10
2018-12-29T07:06:51.434Z,167.77
2018-12-29T07:08:58.588Z,178.23
2018-12-29T07:11:06.032Z,185.90
2018-12-29T07:13:14.140Z,196.27
2018-12-29T07:15:21.755Z,179.87
2018-12-29T07:17:53.823Z,189.03
2018-12-29T07:20:27.829Z,206.33
2018-12-29T07:22:53.448Z,205.03
2018-12-29T07:25:00.951Z,199.43
2018-12-29T07:27:12.480Z,192.80
2018-12-29T07:29:19.548Z,216.83
2018-12-29T07:31:26.753Z,213.87
2018-12-29T07:33:34.815Z,209.07
2018-12-29T07:35:42.738Z,192.60
2018-12-29T07:37:50.223Z,198.23
2018-12-29T07:39:57.602Z,160.70
2018-12-29T07:42:04.966Z,177.17
2018-12-29T07:44:13.676Z,160.17
2018-12-29T07:46:20.835Z,189.40
2018-12-29T07:48:28.048Z,144.63
2018-12-29T07:50:35.313Z,151.73
2018-12-29T07:52:43.187Z,150.83
2018-12-29T07:54:50.419Z,149.90
2018-12-29T07:56:57.889Z,165.83
2018-12-29T07:59:05.488Z,180.03
2018-12-29T08:01:12.585Z,183.60
2018-12-29T08:03:19.845Z,175.40
2018-12-29T08:05:27.687Z,170.03
2018-12-29T08:07:35.509Z,185.00
2018-12-29T08:09:42.910Z,170.10
2018-12-29T08:11:50.185Z,176.50
2018-12-29T08:13:57.539Z,176.13
2018-12-29T08:16:05.036Z,172.37
2018-12-29T08:18:12.388Z,199.07
2018-12-29T08:20:19.633Z,182.30
2018-12-29T08:22:26.973Z,177.07
2018-12-29T08:24:34.100Z,188.70
2018-12-29T08:26:41.314Z,186.83
2018-12-29T08:28:49.318Z,195.20
2018-12-29T08:30:56.574Z,192.63
2018-12-29T08:33:04.110Z,231.90
2018-12-29T08:35:11.438Z,187.50
2018-12-29T08:37:18.503Z,179.03
2018-12-29T08:39:26.228Z,162.80
2018-12-29T08:41:33.335Z,152.70
2018-12-29T08:43:40.592Z,160.27
2018-12-29T08:45:47.867Z,169.83
2018-12-29T08:47:55.208Z,205.57
2018-12-29T08:50:02.355Z,189.23
2018-12-29T08:52:09.384Z,198.97
2018-12-29T08:54:16.984Z,182.00
2018-12-29T08:56:24.025Z,168.53
2018-12-29T08:58:31.325Z,167.53
2018-12-29T09:00:38.431Z,189.40
2018-12-29T09:02:45.721Z,190.90
2018-12-29T09:04:52.892Z,185.63
2018-12-29T09:07:00.275Z,199.70
2018-12-29T09:09:08.769Z,208.90
2018-12-29T09:11:15.997Z,193.73
2018-12-29T09:13:23.247Z,202.90
2018-12-29T09:15:30.261Z,208.90
2018-12-29T09:17:37.616Z,213.10
2018-12-29T09:19:45.798Z,211.70
2018-12-29T09:21:53.052Z,204.17
2018-12-29T09:24:00.357Z,216.37
2018-12-29T09:26:09.431Z,209.53
2018-12-29T09:28:17.024Z,214.23
2018-12-29T09:30:23.981Z,185.50
2018-12-29T09:32:31.143Z,176.87
2018-12-29T09:34:38.553Z,154.33
2018-12-29T09:36:45.455Z,147.67
2018-12-29T09:38:52.695Z,144.43
2018-12-29T09:40:59.904Z,141.33
2018-12-29T09:43:06.945Z,175.20
2018-12-29T09:45:14.093Z,173.70
2018-12-29T09:47:21.465Z,190.80
2018-12-29T09:49:28.830Z,183.20
2018-12-29T09:51:36.292Z,189.10
2018-12-29T09:53:43.327Z,189.37
2018-12-29T09:55:50.484Z,190.53
2018-12-29T09:57:57.633Z,197.97
2018-12-29T10:00:05.129Z,197.50
2018-12-29T10:02:12.540Z,202.43
2018-12-29T10:04:19.905Z,202.87
2018-12-29T10:06:27.014Z,202.83
2018-12-29T10:08:34.078Z,201.10
2018-12-29T10:10:41.339Z,199.70
2018-12-29T10:12:48.588Z,188.30
2018-12-29T10:14:55.580Z,185.90
2018-12-29T10:17:02.903Z,164.37
2018-12-29T10:19:09.999Z,179.73
2018-12-29T10:21:17.300Z,160.30
2018-12-29T10:23:24.358Z,146.07
2018-12-29T10:25:31.786Z,158.60
2018-12-29T10:27:39.017Z,137.67
2018-12-29T10:29:46.098Z,139.67
2018-12-29T10:31:54.135Z,130.07
2018-12-29T10:34:01.302Z,147.43
2018-12-29T10:36:08.553Z,154.77
2018-12-29T10:38:15.688Z,179.90
2018-12-29T10:40:23.618Z,200.37
2018-12-29T10:42:30.738Z,221.57
2018-12-29T10:44:38.047Z,205.10
2018-12-29T10:46:45.322Z,195.50
2018-12-29T10:48:52.680Z,198.30
2018-12-29T10:50:59.712Z,208.50
2018-12-29T10:53:06.856Z,203.60
2018-12-29T10:55:14.842Z,208.53
2018-12-29T10:57:22.288Z,213.23
2018-12-29T10:59:29.639Z,208.07
2018-12-29T11:01:36.836Z,198.53
2018-12-29T11:03:44.094Z,187.07
2018-12-29T11:05:52.147Z,186.07
2018-12-29T11:07:59.138Z,148.93
2018-12-29T11:10:06.493Z,150.93
2018-12-29T11:12:14.215Z,131.30
2018-12-29T11:14:21.341Z,147.57
2018-12-29T11:16:31.205Z,163.17
2018-12-29T11:18:38.555Z,143.83
2018-12-29T11:20:45.612Z,173.37
2018-12-29T11:22:53.044Z,202.13
2018-12-29T11:25:00.331Z,196.63
2018-12-29T11:27:07.689Z,211.63
2018-12-29T11:29:14.839Z,193.77
2018-12-29T11:31:21.978Z,215.23
2018-12-29T11:33:29.159Z,210.23
2018-12-29T11:35:36.387Z,202.73
2018-12-29T11:37:44.173Z,230.17
2018-12-29T11:39:51.538Z,217.67
2018-12-29T11:41:58.723Z,211.23
2018-12-29T11:44:05.794Z,207.43
2018-12-29T11:46:13.070Z,172.93
2018-12-29T11:48:20.486Z,174.13
2018-12-29T11:50:27.741Z,160.03
2018-12-29T11:52:34.702Z,148.83
2018-12-29T11:54:42.593Z,139.93
2018-12-29T11:56:50.453Z,144.20
2018-12-29T11:58:57.519Z,123.50
2018-12-29T12:01:05.420Z,125.93
2018-12-29T12:03:13.209Z,135.63
2018-12-29T12:05:20.404Z,130.77
2018-12-29T12:07:27.678Z,195.97
2018-12-29T12:09:34.963Z,198.63
2018-12-29T12:11:42.425Z,209.13
2018-12-29T12:13:49.548Z,209.47
2018-12-29T12:15:56.724Z,234.70
2018-12-29T12:18:03.733Z,225.57
2018-12-29T12:20:11.209Z,224.63
2018-12-29T12:22:18.657Z,235.77
2018-12-29T12:24:26.217Z,224.60
2018-12-29T12:26:33.827Z,242.47
2018-12-29T12:28:40.936Z,243.63
2018-12-29T12:30:47.975Z,233.97
2018-12-29T12:32:55.636Z,231.43
2018-12-29T12:35:02.757Z,221.23
2018-12-29T12:37:09.900Z,181.87
2018-12-29T12:39:17.280Z,179.03
2018-12-29T12:41:24.489Z,155.40
2018-12-29T12:43:32.014Z,149.83
2018-12-29T12:45:39.548Z,158.77
2018-12-29T12:47:46.999Z,139.30
2018-12-29T12:49:54.113Z,143.67
2018-12-29T12:52:01.397Z,135.40
2018-12-29T12:54:09.191Z,125.30
2018-12-29T12:56:16.431Z,136.40
2018-12-29T12:58:23.540Z,127.13
2018-12-29T13:00:30.884Z,133.97
2018-12-29T13:02:38.252Z,130.87
2018-12-29T13:04:45.576Z,121.17
2018-12-29T13:06:52.683Z,133.27
2018-12-29T13:08:59.873Z,129.97
2018-12-29T13:11:07.389Z,121.00
2018-12-29T13:13:14.636Z,112.90
2018-12-29T13:15:22.869Z,108.17
2018-12-29T13:17:30.280Z,109.40
2018-12-29T13:19:37.587Z,108.13
2018-12-29T13:21:45.644Z,113.20
2018-12-29T13:23:52.990Z,106.17
2018-12-29T13:26:00.614Z,112.27
2018-12-29T13:28:07.999Z,109.53
2018-12-29T13:30:15.725Z,129.40
2018-12-29T13:32:22.807Z,201.77
2018-12-29T13:34:29.926Z,131.37
2018-12-29T13:36:37.196Z,209.63
2018-12-29T13:38:44.491Z,195.40
2018-12-29T13:40:51.871Z,221.30
2018-12-29T13:42:59.014Z,229.67
2018-12-29T13:45:08.360Z,225.93
2018-12-29T13:47:15.595Z,202.10
2018-12-29T13:49:24.252Z,192.40
2018-12-29T13:51:32.217Z,166.23
2018-12-29T13:53:39.892Z,143.23
2018-12-29T13:55:46.962Z,132.97
2018-12-29T13:57:54.661Z,120.00
2018-12-29T14:00:02.349Z,123.53
2018-12-29T14:02:10.248Z,113.23
2018-12-29T14:04:18.224Z,221.67
2018-12-29T14:06:27.553Z,205.43
2018-12-29T14:08:34.717Z,209.60
2018-12-29T14:10:42.261Z,181.77
2018-12-29T14:12:49.773Z,164.40
2018-12-29T14:14:57.301Z,149.43
2018-12-29T14:17:04.443Z,146.70
2018-12-29T14:19:11.562Z,137.47
2018-12-29T14:21:19.606Z,129.17
2018-12-29T14:23:26.948Z,118.13
2018-12-29T14:25:34.241Z,105.93
2018-12-29T14:27:41.879Z,98.03
2018-12-29T14:29:50.074Z,94.20
2018-12-29T14:31:57.994Z,88.10
2018-12-29T14:34:05.115Z,84.20
2018-12-29T14:36:12.483Z,81.63
2018-12-29T14:38:19.941Z,81.13
2018-12-29T14:40:27.021Z,87.30
2018-12-29T14:42:34.168Z,81.90
2018-12-29T14:44:41.496Z,80.43
2018-12-29T14:46:49.879Z,75.60
2018-12-29T14:48:57.348Z,79.07
2018-12-29T14:51:05.675Z,80.07
2018-12-29T14:53:13.020Z,76.83
2018-12-29T14:55:20.362Z,78.83
2018-12-29T14:57:27.426Z,79.00
2018-12-29T14:59:34.672Z,75.57
2018-12-29T15:01:42.066Z,67.53
2018-12-29T15:03:54.302Z,69.50
2018-12-29T15:06:01.781Z,63.53
2018-12-29T15:08:09.412Z,64.93
2018-12-29T15:10:16.926Z,61.30
2018-12-29T15:12:24.326Z,60.77
2018-12-29T15:14:31.959Z,59.73
2018-12-29T15:16:39.155Z,58.33
2018-12-29T15:18:46.628Z,54.60
2018-12-29T15:20:54.275Z,54.67
2018-12-29T15:23:01.545Z,56.63
2018-12-29T15:25:09.391Z,56.53
2018-12-29T15:27:17.099Z,50.30
2018-12-29T15:29:24.391Z,56.33
2018-12-29T15:31:31.764Z,56.27
2018-12-29T15:33:39.322Z,53.37
2018-12-29T15:35:46.971Z,50.00
2018-12-29T15:37:54.421Z,54.60
2018-12-29T15:40:01.715Z,57.20
2018-12-29T15:42:31.279Z,54.40
2018-12-29T15:44:39.388Z,48.13
2018-12-29T15:46:47.456Z,52.10
2018-12-29T15:48:55.146Z,62.40
2018-12-29T15:51:03.100Z,47.27
2018-12-29T15:53:10.999Z,48.43
2018-12-29T15:55:24.754Z,43.87
2018-12-29T15:57:32.569Z,41.83
2018-12-29T15:59:40.991Z,38.20
2018-12-29T16:01:48.440Z,39.70
2018-12-29T16:03:55.488Z,39.97
2018-12-29T16:06:06.092Z,37.77
2018-12-29T16:08:13.633Z,37.80
2018-12-29T16:10:20.929Z,41.47
2018-12-29T16:12:28.263Z,39.03
2018-12-29T16:14:35.745Z,36.93
2018-12-29T16:16:42.993Z,38.00
2018-12-29T16:19:04.035Z,35.60
2018-12-29T16:21:11.515Z,39.87
2018-12-29T16:23:19.135Z,36.87
2018-12-29T16:25:27.078Z,40.70
2018-12-29T16:27:34.710Z,34.13
2018-12-29T16:29:42.819Z,32.83
2018-12-29T16:31:50.742Z,36.97
2018-12-29T16:36:11.416Z,43.13
2018-12-29T16:38:18.999Z,39.43
2018-12-29T16:40:26.479Z,39.23
2018-12-29T16:42:52.284Z,36.40
2018-12-29T16:45:00.177Z,39.17
2018-12-29T16:47:08.842Z,36.27
2018-12-29T16:49:16.832Z,39.23
2018-12-29T16:51:25.891Z,33.80
2018-12-29T16:53:33.626Z,33.50
2018-12-29T16:55:41.429Z,33.30
2018-12-29T16:58:10.260Z,34.53
2018-12-29T17:00:22.819Z,33.47
2018-12-29T17:04:55.900Z,32.60
2018-12-29T17:07:14.611Z,29.57
2018-12-29T17:09:21.787Z,31.23
2018-12-29T17:11:28.797Z,27.70
2018-12-29T17:13:37.890Z,28.40
2018-12-29T17:15:46.859Z,24.80
2018-12-29T17:18:00.718Z,27.13
2018-12-29T17:20:12.935Z,24.27
2018-12-29T17:22:24.557Z,26.37
2018-12-29T17:24:33.829Z,26.30
2018-12-29T17:26:42.998Z,27.50
2018-12-29T17:28:50.308Z,26.30
2018-12-29T17:31:01.170Z,24.67
2018-12-29T17:33:09.015Z,25.40
2018-12-29T17:35:19.371Z,27.77
2018-12-29T17:37:28.333Z,24.70
2018-12-29T17:39:36.465Z,26.27
2018-12-29T17:41:46.493Z,25.67
2018-12-29T17:43:53.856Z,23.87
2018-12-29T17:46:10.809Z,26.87
2018-12-29T17:48:20.347Z,23.27
2018-12-29T17:50:29.503Z,22.33
2018-12-29T17:52:41.915Z,24.37
2018-12-29T17:54:52.001Z,24.20
2018-12-29T17:57:02.336Z,24.17
2018-12-29T17:59:11.034Z,24.23
2018-12-29T18:01:32.017Z,23.53
2018-12-29T18:03:40.374Z,22.57
2018-12-29T18:06:10.916Z,21.47
2018-12-29T18:08:24.991Z,25.20
2018-12-29T18:10:36.020Z,20.87
2018-12-29T18:12:51.281Z,23.10
2018-12-29T18:15:01.583Z,19.97
2018-12-29T18:17:15.114Z,21.30
2018-12-29T18:19:30.480Z,19.63
2018-12-29T18:21:34.831Z,20.90
2018-12-29T18:23:43.691Z,21.33
2018-12-29T18:26:10.858Z,20.47
2018-12-29T18:28:16.859Z,21.23
2018-12-29T18:30:26.066Z,21.07
2018-12-29T18:32:33.366Z,19.10
2018-12-29T18:34:42.023Z,18.23
2018-12-29T18:36:54.241Z,19.73
2018-12-29T18:39:05.312Z,24.13
2018-12-29T18:41:16.256Z,18.57
2018-12-29T18:43:23.527Z,18.00
2018-12-29T18:45:45.180Z,19.63
2018-12-29T18:47:54.036Z,17.17
2018-12-29T18:50:04.053Z,18.70
2018-12-29T18:52:13.468Z,20.20
2018-12-29T18:54:22.398Z,20.13
2018-12-29T18:56:33.692Z,17.70
2018-12-29T18:58:42.521Z,20.47
2018-12-29T19:00:51.761Z,17.30
2018-12-29T19:03:01.907Z,16.80
2018-12-29T19:05:36.290Z,17.70
2018-12-29T19:07:43.534Z,20.13
2018-12-29T19:09:51.158Z,18.33
2018-12-29T19:12:11.321Z,21.53
2018-12-29T19:14:17.771Z,19.83
2018-12-29T19:16:28.245Z,18.63
2018-12-29T19:18:41.999Z,17.13
2018-12-29T19:20:52.029Z,17.37
2018-12-29T19:23:01.905Z,16.27
2018-12-29T19:25:11.364Z,16.07
2018-12-29T19:27:33.024Z,20.47
2018-12-29T19:29:46.208Z,16.67
2018-12-29T19:32:03.322Z,17.40
2018-12-29T19:34:44.465Z,20.40
2018-12-29T19:36:25.103Z,21.40
2018-12-29T19:38:34.520Z,16.93
2018-12-29T19:40:41.775Z,18.40
2018-12-29T19:42:55.076Z,14.20
2018-12-29T19:45:06.908Z,16.57
2018-12-29T19:47:19.441Z,16.70
2018-12-29T19:49:26.833Z,14.73
2018-12-29T19:51:35.239Z,12.73
2018-12-29T19:53:43.813Z,15.53
2018-12-29T19:55:54.927Z,14.10
2018-12-29T19:58:02.942Z,12.07
2018-12-29T20:00:14.000Z,12.27
2018-12-29T20:02:22.265Z,10.87
2018-12-29T20:04:46.039Z,14.97
2018-12-29T20:06:58.136Z,26.97
2018-12-29T20:09:10.743Z,22.33
2018-12-29T20:11:20.714Z,51.53
2018-12-29T20:13:27.800Z,36.50
2018-12-29T20:15:36.571Z,54.43
2018-12-29T20:17:43.722Z,39.73
2018-12-29T20:19:50.883Z,50.40
2018-12-29T20:21:58.793Z,77.93
2018-12-29T20:24:07.074Z,75.17
2018-12-29T20:26:17.115Z,77.23
2018-12-29T20:28:24.911Z,89.53
2018-12-29T20:30:32.823Z,77.43
2018-12-29T20:32:40.120Z,89.87
2018-12-29T20:34:47.349Z,111.20
2018-12-29T20:36:55.551Z,102.73
2018-12-29T20:39:02.740Z,94.23
2018-12-29T20:41:10.084Z,90.93
2018-12-29T20:43:17.977Z,96.60
2018-12-29T20:45:25.135Z,96.23
2018-12-29T20:47:34.782Z,133.87
2018-12-29T20:49:43.328Z,123.83
2018-12-29T20:51:51.416Z,126.03
2018-12-29T20:53:59.985Z,119.77
2018-12-29T20:56:09.279Z,144.07
2018-12-29T20:58:21.414Z,140.23
2018-12-29T21:00:28.490Z,135.77
2018-12-29T21:02:35.886Z,138.40
2018-12-29T21:04:44.488Z,133.30
2018-12-29T21:06:52.330Z,143.97
2018-12-29T21:08:59.489Z,139.60
2018-12-29T21:11:09.859Z,159.00
2018-12-29T21:13:20.805Z,154.00
2018-12-29T21:15:31.449Z,152.40
2018-12-29T21:17:42.521Z,133.63
2018-12-29T21:19:54.693Z,126.70
2018-12-29T21:22:04.886Z,123.13
2018-12-29T21:24:19.597Z,122.77
2018-12-29T21:26:38.427Z,97.73
2018-12-29T21:28:50.717Z,105.30
2018-12-29T21:31:01.111Z,95.73
2018-12-29T21:33:10.219Z,120.10
2018-12-29T21:35:24.206Z,95.37
2018-12-29T21:37:39.125Z,154.77
2018-12-29T21:39:54.760Z,129.80
2018-12-29T21:42:03.257Z,135.40
2018-12-29T21:44:13.202Z,132.73
2018-12-29T21:46:23.482Z,144.83
2018-12-29T21:48:33.610Z,136.37
2018-12-29T21:50:53.133Z,129.10
2018-12-29T21:53:04.532Z,147.37
2018-12-29T21:55:12.083Z,135.10
2018-12-29T21:57:19.237Z,140.00
2018-12-29T21:59:31.876Z,158.50
2018-12-29T22:01:41.412Z,162.00
2018-12-29T22:04:11.052Z,130.33
2018-12-29T22:06:28.677Z,137.77
2018-12-29T22:08:44.259Z,137.73
2018-12-29T22:10:56.109Z,162.67
2018-12-29T22:13:03.646Z,166.47
2018-12-29T22:15:11.642Z,148.23
2018-12-29T22:17:18.973Z,167.77
2018-12-29T22:19:36.559Z,155.17
2018-12-29T22:21:48.525Z,135.70
2018-12-29T22:23:55.303Z,152.47
2018-12-29T22:26:07.697Z,138.30
2018-12-29T22:28:15.138Z,122.10
2018-12-29T22:30:22.995Z,131.83
2018-12-29T22:32:31.921Z,111.10
2018-12-29T22:34:42.643Z,134.77
2018-12-29T22:36:54.665Z,136.33
2018-12-29T22:39:01.934Z,143.53
2018-12-29T22:42:46.438Z,152.00
2018-12-29T22:43:21.318Z,160.80
2018-12-29T22:45:31.312Z,164.00
2018-12-29T22:47:39.315Z,163.43
2018-12-29T22:49:47.880Z,163.27
2018-12-29T22:51:58.693Z,157.67
2018-12-29T22:54:08.803Z,157.20
2018-12-29T22:56:19.643Z,176.27
2018-12-29T22:58:39.681Z,170.67
2018-12-29T23:00:49.488Z,173.87
2018-12-29T23:02:57.533Z,163.97
2018-12-29T23:05:04.842Z,167.97
2018-12-29T23:07:12.385Z,175.87
2018-12-29T23:09:19.706Z,176.20
2018-12-29T23:11:26.913Z,155.20
2018-12-29T23:13:38.114Z,145.73
2018-12-29T23:15:55.985Z,143.03
2018-12-29T23:18:07.559Z,140.97
2018-12-29T23:20:31.868Z,150.00
2018-12-29T23:22:45.035Z,182.47
2018-12-29T23:24:56.763Z,151.27
2018-12-29T23:27:10.220Z,161.63
2018-12-29T23:29:30.155Z,146.03
2018-12-29T23:31:38.560Z,176.87
2018-12-29T23:33:46.579Z,165.83
2018-12-29T23:35:59.859Z,168.43
2018-12-29T23:38:12.351Z,165.63
2018-12-29T23:40:22.410Z,198.70
2018-12-29T23:42:42.418Z,140.13
2018-12-29T23:44:54.369Z,147.43
2018-12-29T23:47:07.962Z,153.87
2018-12-29T23:49:17.323Z,162.27
2018-12-29T23:51:33.470Z,186.07
2018-12-29T23:53:42.253Z,190.67
2018-12-29T23:55:54.955Z,177.10
2018-12-29T23:58:05.819Z,181.77
